createdAt,value
2018-06-23T00:00:42.736Z,5.70
2018-06-23T00:03:09.972Z,5.57
2018-06-23T00:05:37.233Z,5.00
2018-06-23T00:08:04.461Z,4.63
2018-06-23T00:10:31.757Z,4.83
2018-06-23T00:12:59.013Z,4.13
2018-06-23T00:15:26.399Z,4.60
2018-06-23T00:17:53.648Z,4.67
2018-06-23T00:20:21.151Z,4.47
2018-06-23T00:22:48.399Z,4.50
2018-06-23T00:25:21.380Z,5.10
2018-06-23T00:27:48.662Z,4.90
2018-06-23T00:30:15.981Z,5.63
2018-06-23T00:32:43.210Z,5.53
2018-06-23T00:35:10.411Z,4.70
2018-06-23T00:37:37.599Z,5.00
2018-06-23T00:40:04.968Z,5.53
2018-06-23T00:42:32.193Z,5.40
2018-06-23T00:44:59.412Z,4.37
2018-06-23T00:47:26.896Z,4.67
2018-06-23T00:49:54.123Z,4.60
2018-06-23T00:52:21.353Z,4.90
2018-06-23T00:54:48.595Z,4.33
2018-06-23T00:57:15.856Z,5.00
2018-06-23T00:59:44.034Z,4.53
2018-06-23T01:02:11.535Z,6.03
2018-06-23T01:04:38.776Z,4.80
2018-06-23T01:07:07.062Z,5.00
2018-06-23T01:09:34.373Z,5.07
2018-06-23T01:12:01.983Z,5.30
2018-06-23T01:14:29.249Z,5.80
2018-06-23T01:16:56.474Z,4.70
2018-06-23T01:19:23.917Z,4.57
2018-06-23T01:21:51.146Z,4.83
2018-06-23T01:24:18.386Z,6.40
2018-06-23T01:26:45.620Z,5.90
2018-06-23T03:12:42.698Z,3.50
2018-06-23T03:15:10.689Z,4.50
2018-06-23T03:17:37.896Z,4.60
2018-06-23T03:20:05.147Z,4.47
2018-06-23T03:22:32.345Z,4.50
2018-06-23T03:24:59.572Z,4.03
2018-06-23T03:27:26.858Z,3.60
2018-06-23T03:29:54.052Z,3.85
2018-06-23T03:32:21.228Z,4.27
2018-06-23T03:34:48.483Z,4.12
2018-06-23T03:37:15.723Z,3.50
2018-06-23T03:39:42.934Z,3.37
2018-06-23T03:42:10.206Z,3.50
2018-06-23T03:44:37.406Z,3.80
2018-06-23T03:47:04.712Z,3.40
2018-06-23T03:49:31.953Z,3.65
2018-06-23T03:51:59.144Z,3.35
2018-06-23T03:54:26.400Z,4.00
2018-06-23T03:56:54.431Z,3.90
2018-06-23T03:59:21.634Z,3.67
2018-06-23T04:01:48.859Z,3.40
2018-06-23T04:04:16.219Z,3.70
2018-06-23T04:06:43.436Z,3.50
2018-06-23T04:09:11.336Z,3.17
2018-06-23T04:11:39.126Z,3.60
2018-06-23T04:14:06.440Z,3.58
2018-06-23T04:16:34.076Z,3.45
2018-06-23T04:19:01.299Z,3.87
2018-06-23T04:21:30.243Z,3.70
2018-06-23T04:23:57.680Z,4.30
2018-06-23T04:26:25.373Z,4.22
2018-06-23T04:28:52.573Z,3.90
2018-06-23T04:31:19.768Z,3.60
2018-06-23T04:33:46.976Z,3.50
2018-06-23T04:36:14.632Z,3.87
2018-06-23T04:38:41.853Z,3.65
2018-06-23T04:41:09.200Z,3.00
2018-06-23T04:43:36.364Z,3.60
2018-06-23T04:46:03.709Z,4.10
2018-06-23T04:48:31.193Z,3.80
2018-06-23T04:50:58.395Z,3.58
2018-06-23T04:53:25.657Z,3.35
2018-06-23T04:55:52.856Z,3.77
2018-06-23T04:58:20.017Z,3.50
2018-06-23T05:00:47.322Z,3.50
2018-06-23T05:03:14.544Z,3.50
2018-06-23T05:05:41.717Z,3.52
2018-06-23T05:08:09.001Z,3.30
2018-06-23T05:10:36.484Z,3.47
2018-06-23T05:13:03.824Z,3.63
2018-06-23T05:15:31.017Z,3.20
2018-06-23T05:17:58.432Z,3.10
2018-06-23T05:20:25.644Z,3.52
2018-06-23T05:22:52.847Z,3.50
2018-06-23T05:25:20.109Z,3.35
2018-06-23T05:27:47.276Z,3.57
2018-06-23T05:30:14.509Z,3.80
2018-06-23T05:32:41.708Z,3.00
2018-06-23T05:35:09.001Z,3.80
2018-06-23T05:37:36.240Z,3.60
2018-06-23T05:40:03.441Z,3.67
2018-06-23T05:42:30.641Z,3.72
2018-06-23T05:44:57.856Z,3.90
2018-06-23T05:47:25.080Z,3.52
2018-06-23T05:49:52.734Z,3.60
2018-06-23T05:52:20.594Z,3.00
2018-06-23T05:54:47.932Z,3.20
2018-06-23T05:57:15.149Z,2.72
2018-06-23T05:59:42.641Z,3.08
2018-06-23T06:02:10.364Z,3.35
2018-06-23T06:04:37.580Z,2.83
2018-06-23T06:07:04.788Z,2.90
2018-06-23T06:09:32.228Z,2.97
2018-06-23T06:11:59.500Z,3.20
2018-06-23T06:14:26.785Z,3.47
2018-06-23T06:17:35.901Z,3.60
2018-06-23T06:20:04.749Z,3.30
2018-06-23T06:22:33.244Z,3.67
2018-06-23T06:25:00.473Z,3.50
2018-06-23T06:27:27.783Z,3.30
2018-06-23T06:29:55.705Z,3.65
2018-06-23T06:32:23.564Z,3.47
2018-06-23T06:34:50.782Z,3.20
2018-06-23T06:37:18.050Z,3.00
2018-06-23T06:39:45.753Z,3.02
2018-06-23T06:42:13.252Z,3.20
2018-06-23T06:44:40.505Z,3.00
2018-06-23T06:47:07.855Z,3.05
2018-06-23T06:49:35.088Z,3.00
2018-06-23T06:52:02.407Z,2.70
2018-06-23T06:54:30.501Z,3.30
2018-06-23T06:56:57.689Z,3.00
2018-06-23T06:59:25.021Z,3.15
2018-06-23T07:01:52.247Z,3.35
2018-06-23T07:04:19.957Z,3.50
2018-06-23T07:06:47.421Z,3.22
2018-06-23T07:09:15.060Z,2.92
2018-06-23T07:11:43.166Z,3.05
2018-06-23T07:14:10.455Z,3.27
2018-06-23T07:16:38.423Z,3.58
2018-06-23T07:19:05.684Z,2.98
2018-06-23T07:21:33.561Z,4.00
2018-06-23T07:24:01.540Z,3.62
2018-06-23T07:26:28.629Z,3.57
2018-06-23T07:28:55.906Z,3.50
2018-06-23T07:31:23.266Z,3.52
2018-06-23T07:33:50.620Z,3.98
2018-06-23T07:36:18.057Z,3.33
2018-06-23T07:38:45.288Z,3.85
2018-06-23T07:41:12.837Z,3.60
2018-06-23T07:43:40.163Z,3.90
2018-06-23T07:46:07.400Z,3.50
2018-06-23T07:48:34.586Z,3.70
2018-06-23T07:51:02.010Z,4.22
2018-06-23T07:53:29.268Z,4.30
2018-06-23T07:55:56.710Z,3.50
2018-06-23T07:58:23.880Z,3.70
2018-06-23T08:00:51.084Z,4.55
2018-06-23T08:03:18.385Z,4.92
2018-06-23T08:05:45.661Z,3.45
2018-06-23T08:08:13.242Z,4.20
2018-06-23T08:13:14.411Z,4.25
2018-06-23T08:15:41.687Z,4.15
2018-06-23T08:18:09.032Z,4.10
2018-06-23T08:20:36.417Z,4.37
2018-06-23T08:23:03.637Z,4.60
2018-06-23T08:25:30.879Z,5.10
2018-06-23T08:27:58.032Z,5.10
2018-06-23T08:30:25.256Z,4.93
2018-06-23T08:32:52.669Z,4.90
2018-06-23T08:35:19.929Z,4.30
2018-06-23T08:37:47.196Z,4.90
2018-06-23T08:57:21.836Z,4.00
2018-06-23T08:59:49.174Z,4.20
2018-06-23T09:02:16.433Z,4.53
2018-06-23T09:04:43.748Z,4.03
2018-06-23T09:07:11.113Z,4.37
2018-06-23T09:09:38.307Z,3.90
2018-06-23T09:12:05.542Z,4.25
2018-06-23T09:14:33.025Z,4.20
2018-06-23T09:17:01.286Z,4.10
2018-06-23T09:19:28.581Z,4.37
2018-06-23T09:21:55.833Z,3.77
2018-06-23T09:24:23.165Z,4.00
2018-06-23T09:26:50.490Z,3.87
2018-06-23T09:29:17.767Z,3.70
2018-06-23T09:31:45.514Z,3.60
2018-06-23T09:34:12.792Z,3.80
2018-06-23T09:36:40.017Z,3.77
2018-06-23T09:39:08.524Z,3.70
2018-06-23T09:41:35.756Z,2.70
2018-06-23T09:44:03.677Z,3.12
2018-06-23T09:46:30.973Z,3.75
2018-06-23T09:48:58.495Z,3.35
2018-06-23T09:51:25.724Z,3.30
2018-06-23T09:53:53.013Z,3.92
2018-06-23T09:56:20.539Z,3.40
2018-06-23T09:58:47.929Z,4.17
2018-06-23T10:01:15.173Z,3.43
2018-06-23T10:03:42.441Z,3.70
2018-06-23T10:06:09.648Z,3.50
2018-06-23T10:08:37.153Z,3.65
2018-06-23T10:11:04.412Z,3.90
2018-06-23T10:13:31.644Z,4.00
2018-06-23T10:15:58.978Z,4.70
2018-06-23T10:18:26.229Z,4.90
2018-06-23T10:20:53.429Z,4.42
2018-06-23T10:23:20.784Z,4.60
2018-06-23T10:25:48.140Z,3.60
2018-06-23T10:28:15.395Z,4.60
2018-06-23T10:30:42.653Z,4.05
2018-06-23T10:33:10.001Z,4.42
2018-06-23T10:35:37.212Z,4.22
2018-06-23T10:38:04.486Z,3.67
2018-06-23T10:40:31.645Z,3.77
2018-06-23T10:42:58.885Z,4.10
2018-06-23T10:45:26.099Z,4.35
2018-06-23T10:47:53.428Z,4.60
2018-06-23T10:50:20.733Z,4.70
2018-06-23T10:52:48.125Z,4.08
2018-06-23T10:55:15.366Z,4.80
2018-06-23T10:57:42.619Z,4.60
2018-06-23T11:00:09.832Z,4.33
2018-06-23T11:02:37.032Z,4.80
2018-06-23T11:05:04.254Z,4.08
2018-06-23T11:07:31.437Z,3.85
2018-06-23T11:09:58.610Z,3.20
2018-06-23T11:12:26.048Z,3.57
2018-06-23T11:14:53.320Z,4.00
2018-06-23T11:17:20.612Z,3.85
2018-06-23T11:19:47.845Z,3.20
2018-06-23T11:22:15.068Z,3.50
2018-06-23T11:24:42.334Z,3.50
2018-06-23T11:27:09.573Z,3.83
2018-06-23T11:29:36.817Z,3.75
2018-06-23T11:32:04.123Z,3.55
2018-06-23T11:34:31.353Z,3.70
2018-06-23T11:36:58.928Z,3.70
2018-06-23T11:39:26.194Z,4.37
2018-06-23T11:41:53.486Z,3.30
2018-06-23T11:44:20.664Z,2.92
2018-06-23T11:51:41.604Z,3.85
2018-06-23T11:56:35.633Z,3.77
2018-06-23T11:59:03.008Z,3.67
2018-06-23T12:01:30.343Z,4.40
2018-06-23T12:03:57.599Z,3.90
2018-06-23T12:06:26.016Z,4.30
2018-06-23T12:08:53.492Z,3.50
2018-06-23T12:11:21.435Z,3.37
2018-06-23T12:13:48.754Z,4.00
2018-06-23T12:16:15.989Z,4.00
2018-06-23T12:18:43.165Z,4.40
2018-06-23T12:21:10.592Z,3.90
2018-06-23T12:23:37.754Z,4.17
2018-06-23T12:26:05.033Z,3.00
2018-06-23T12:28:32.221Z,4.07
2018-06-23T12:30:59.420Z,3.50
2018-06-23T12:33:26.654Z,4.57
2018-06-23T12:35:53.896Z,3.70
2018-06-23T12:38:21.148Z,4.10
2018-06-23T12:40:48.334Z,3.50
2018-06-23T12:43:15.529Z,3.70
2018-06-23T12:45:42.767Z,3.20
2018-06-23T12:48:10.028Z,4.37
2018-06-23T12:50:37.289Z,4.63
2018-06-23T12:53:04.544Z,4.40
2018-06-23T12:55:31.837Z,4.40
2018-06-23T12:57:59.052Z,4.53
2018-06-23T13:00:26.292Z,4.73
2018-06-23T13:02:53.588Z,4.30
2018-06-23T13:05:20.789Z,4.67
2018-06-23T13:07:47.974Z,5.07
2018-06-23T13:10:15.184Z,5.23
2018-06-23T13:12:42.570Z,6.00
2018-06-23T13:15:10.095Z,5.70
2018-06-23T13:17:37.370Z,4.97
2018-06-23T13:20:04.745Z,6.17
2018-06-23T13:22:31.922Z,5.20
2018-06-23T13:24:59.129Z,5.70
2018-06-23T13:27:26.325Z,4.87
2018-06-23T13:29:53.504Z,5.10
2018-06-23T13:32:20.716Z,6.00
2018-06-23T13:34:47.966Z,5.60
2018-06-23T13:37:15.226Z,4.83
2018-06-23T13:39:42.403Z,5.80
2018-06-23T13:42:09.592Z,4.50
2018-06-23T13:44:37.152Z,4.93
2018-06-23T13:47:04.379Z,5.33
2018-06-23T13:49:31.587Z,5.50
2018-06-23T13:51:59.224Z,5.50
2018-06-23T13:54:26.395Z,5.53
2018-06-23T13:56:53.857Z,6.60
2018-06-23T13:59:21.452Z,5.50
2018-06-23T14:01:48.770Z,5.80
2018-06-23T14:04:15.991Z,5.50
2018-06-23T14:06:43.223Z,6.13
2018-06-23T14:09:14.504Z,6.17
2018-06-23T14:11:41.716Z,5.97
2018-06-23T14:14:09.039Z,6.03
2018-06-23T14:16:36.581Z,5.73
2018-06-23T14:19:04.168Z,6.00
2018-06-23T14:21:31.387Z,6.60
2018-06-23T14:23:58.576Z,7.00
2018-06-23T14:26:25.891Z,6.07
2018-06-23T14:28:53.252Z,6.27
2018-06-23T14:31:20.636Z,6.40
2018-06-23T14:33:47.755Z,6.10
2018-06-23T14:36:14.956Z,5.83
2018-06-23T14:38:42.193Z,5.63
2018-06-23T14:41:09.578Z,5.70
2018-06-23T14:43:36.853Z,6.60
2018-06-23T14:46:04.280Z,6.10
2018-06-23T14:48:31.536Z,6.50
2018-06-23T14:50:58.749Z,5.80
2018-06-23T14:53:25.975Z,5.30
2018-06-23T14:55:53.186Z,5.60
2018-06-23T14:58:20.389Z,5.80
2018-06-23T15:00:47.622Z,6.10
2018-06-23T15:03:14.860Z,5.20
2018-06-23T15:05:42.228Z,5.30
2018-06-23T15:08:21.076Z,4.87
2018-06-23T15:10:59.652Z,4.70
2018-06-23T15:13:27.160Z,5.13
2018-06-23T15:15:54.385Z,4.93
2018-06-23T15:18:21.638Z,6.80
2018-06-23T15:20:48.935Z,7.37
2018-06-23T15:23:16.300Z,6.10
2018-06-23T15:25:43.516Z,7.23
2018-06-23T15:28:10.697Z,5.90
2018-06-23T15:30:37.900Z,5.50
2018-06-23T15:33:05.160Z,5.93
2018-06-23T15:35:32.423Z,6.03
2018-06-23T15:37:59.728Z,6.90
2018-06-23T15:40:26.979Z,7.42
2018-06-23T15:42:54.165Z,6.65
2018-06-23T15:45:21.519Z,7.55
2018-06-23T15:47:48.788Z,7.17
2018-06-23T15:50:16.459Z,6.60
2018-06-23T15:52:43.746Z,7.70
2018-06-23T15:55:10.925Z,7.92
2018-06-23T15:57:38.144Z,9.35
2018-06-23T16:00:05.453Z,8.88
2018-06-23T16:02:32.692Z,9.43
2018-06-23T16:04:59.904Z,9.33
2018-06-23T16:07:27.113Z,8.53
2018-06-23T16:09:54.396Z,9.20
2018-06-23T16:12:21.558Z,9.05
2018-06-23T16:14:49.125Z,8.60
2018-06-23T16:17:16.342Z,9.80
2018-06-23T16:19:43.578Z,9.07
2018-06-23T16:22:10.835Z,9.60
2018-06-23T16:24:38.090Z,8.90
2018-06-23T16:27:05.296Z,9.15
2018-06-23T16:29:32.549Z,8.43
2018-06-23T16:31:59.727Z,8.00
2018-06-23T16:34:27.020Z,7.80
2018-06-23T16:36:54.188Z,10.80
2018-06-23T16:39:21.379Z,9.60
2018-06-23T16:41:48.679Z,8.50
2018-06-23T16:44:15.876Z,9.87
2018-06-23T16:46:43.075Z,8.10
2018-06-23T16:49:10.306Z,9.90
2018-06-23T16:51:37.496Z,9.83
2018-06-23T16:54:04.773Z,9.03
2018-06-23T16:56:32.022Z,8.90
2018-06-23T16:58:59.173Z,9.40
2018-06-23T17:01:26.447Z,10.63
2018-06-23T17:03:54.132Z,10.05
2018-06-23T17:06:21.252Z,9.70
2018-06-23T17:08:48.504Z,9.63
2018-06-23T17:11:15.742Z,9.93
2018-06-23T17:13:42.933Z,9.00
2018-06-23T17:16:10.177Z,9.13
2018-06-23T17:18:37.805Z,10.50
2018-06-23T17:21:05.005Z,8.95
2018-06-23T17:23:32.236Z,8.95
2018-06-23T17:25:59.556Z,9.70
2018-06-23T17:28:26.755Z,9.28
2018-06-23T17:30:57.240Z,9.00
2018-06-23T17:33:24.397Z,9.17
2018-06-23T17:35:51.668Z,8.88
2018-06-23T17:38:18.886Z,9.95
2018-06-23T17:40:46.155Z,10.48
2018-06-23T17:43:13.660Z,9.40
2018-06-23T17:45:40.928Z,9.93
2018-06-23T17:48:08.105Z,9.27
2018-06-23T17:50:35.752Z,10.05
2018-06-23T17:53:03.045Z,9.70
2018-06-23T17:55:30.251Z,9.83
2018-06-23T17:57:57.605Z,9.20
2018-06-23T18:00:24.680Z,8.90
2018-06-23T18:02:51.940Z,8.30
2018-06-23T18:05:19.178Z,9.20
2018-06-23T18:07:46.388Z,9.65
2018-06-23T18:10:13.598Z,9.80
2018-06-23T18:12:40.797Z,9.05
2018-06-23T18:15:08.148Z,9.08
2018-06-23T18:17:35.389Z,8.00
2018-06-23T18:20:02.632Z,9.23
2018-06-23T18:22:29.843Z,9.03
2018-06-23T18:24:57.093Z,8.98
2018-06-23T18:27:24.297Z,7.95
2018-06-23T18:29:51.519Z,9.43
2018-06-23T18:32:18.757Z,8.75
2018-06-23T18:34:45.984Z,8.77
2018-06-23T18:37:13.217Z,8.63
2018-06-23T18:39:40.457Z,8.93
2018-06-23T18:42:07.728Z,8.63
2018-06-23T18:44:34.981Z,9.00
2018-06-23T18:47:02.139Z,8.15
2018-06-23T18:49:29.418Z,7.65
2018-06-23T18:51:56.852Z,8.10
2018-06-23T18:54:24.092Z,8.25
2018-06-23T18:56:51.263Z,8.70
2018-06-23T18:59:18.493Z,7.70
2018-06-23T19:01:45.831Z,9.23
2018-06-23T19:04:13.037Z,8.90
2018-06-23T19:06:40.320Z,8.93
2018-06-23T19:09:08.795Z,10.43
2018-06-23T19:11:35.968Z,9.58
2018-06-23T19:14:04.217Z,9.80
2018-06-23T19:16:31.421Z,9.85
2018-06-23T19:18:58.700Z,10.03
2018-06-23T19:21:25.920Z,9.70
2018-06-23T19:23:53.133Z,10.50
2018-06-23T19:26:20.409Z,11.68
2018-06-23T19:28:47.645Z,11.80
2018-06-23T19:31:15.045Z,11.80
2018-06-23T19:33:42.528Z,12.37
2018-06-23T19:36:09.748Z,12.50
2018-06-23T21:36:07.258Z,8.20
2018-06-23T21:38:34.470Z,12.00
2018-06-23T21:41:01.704Z,11.45
2018-06-23T21:43:28.892Z,10.40
2018-06-23T21:45:56.091Z,12.10
2018-06-23T21:48:23.309Z,10.32
2018-06-23T21:50:50.503Z,10.55
2018-06-23T21:53:17.794Z,11.20
2018-06-23T21:55:44.996Z,11.18
2018-06-23T21:58:12.169Z,10.37
2018-06-23T22:00:40.935Z,10.48
2018-06-23T22:03:09.494Z,10.30
2018-06-23T22:05:36.767Z,10.08
2018-06-23T22:08:04.924Z,10.30
2018-06-23T22:10:32.235Z,10.70
2018-06-23T22:12:59.512Z,9.25
2018-06-23T22:15:26.753Z,9.50
2018-06-23T22:17:54.253Z,9.25
2018-06-23T22:20:21.481Z,9.60
2018-06-23T22:22:49.580Z,8.05
2018-06-23T22:25:17.459Z,9.30
2018-06-23T22:27:44.681Z,9.05
2018-06-23T22:30:11.999Z,8.30
2018-06-23T22:32:39.207Z,8.50
2018-06-23T22:35:07.153Z,8.05
2018-06-23T22:37:34.429Z,8.55
2018-06-23T22:40:01.637Z,8.67
2018-06-23T22:42:28.877Z,8.60
2018-06-23T22:44:56.315Z,8.70
2018-06-23T22:47:23.488Z,8.08
2018-06-23T22:49:50.696Z,9.35
2018-06-23T22:52:17.996Z,8.68
2018-06-23T22:54:45.403Z,8.43
2018-06-23T22:57:12.847Z,9.23
2018-06-23T22:59:46.844Z,9.00
2018-06-23T23:02:14.033Z,8.18
2018-06-23T23:04:41.310Z,9.45
2018-06-23T23:07:08.704Z,9.43
2018-06-23T23:09:35.956Z,8.73
2018-06-23T23:12:03.741Z,9.30
2018-06-23T23:14:31.240Z,9.60
2018-06-23T23:16:58.638Z,9.30
2018-06-23T23:19:26.247Z,9.38
2018-06-23T23:21:53.534Z,9.55
2018-06-23T23:24:20.878Z,9.70
2018-06-23T23:26:48.096Z,8.83
2018-06-23T23:29:15.308Z,9.70
2018-06-23T23:31:42.601Z,9.23
2018-06-23T23:34:09.772Z,9.30
2018-06-23T23:36:37.032Z,9.83
2018-06-23T23:39:06.502Z,9.40
2018-06-23T23:41:33.708Z,9.10
2018-06-23T23:44:01.278Z,8.53
2018-06-23T23:46:28.482Z,9.57
2018-06-23T23:48:55.649Z,8.33
2018-06-23T23:51:22.866Z,8.45
2018-06-23T23:53:50.041Z,8.70
2018-06-23T23:56:17.392Z,8.93
2018-06-23T23:58:44.670Z,9.00
